createdAt,value
2019-02-20T00:00:20.677Z,6.10
2019-02-20T00:02:49.256Z,6.10
2019-02-20T00:05:18.061Z,6.00
2019-02-20T00:07:46.841Z,6.00
2019-02-20T00:10:15.303Z,5.90
2019-02-20T00:12:43.747Z,5.90
2019-02-20T00:15:12.270Z,5.90
2019-02-20T00:17:40.748Z,6.00
2019-02-20T00:20:09.270Z,6.00
2019-02-20T00:22:40.176Z,5.90
2019-02-20T00:25:08.355Z,5.90
2019-02-20T00:27:36.803Z,5.90
2019-02-20T00:30:08.463Z,5.80
2019-02-20T00:32:37.001Z,5.80
2019-02-20T00:35:06.770Z,5.70
2019-02-20T00:37:35.307Z,5.70
2019-02-20T00:40:11.010Z,5.70
2019-02-20T00:42:39.446Z,5.70
2019-02-20T00:45:30.650Z,5.70
2019-02-20T00:48:09.760Z,5.80
2019-02-20T00:50:39.879Z,5.80
2019-02-20T00:53:09.961Z,5.80
2019-02-20T00:55:38.412Z,5.80
2019-02-20T00:58:06.883Z,5.80
2019-02-20T01:00:35.331Z,5.80
2019-02-20T01:03:04.396Z,5.80
2019-02-20T01:05:33.303Z,5.80
2019-02-20T01:08:01.749Z,5.80
2019-02-20T01:10:30.224Z,5.80
2019-02-20T01:12:58.666Z,5.80
2019-02-20T01:15:27.105Z,5.70
2019-02-20T01:17:55.576Z,5.70
2019-02-20T01:20:24.023Z,5.80
2019-02-20T01:22:59.602Z,5.70
2019-02-20T01:25:22.669Z,5.70
2019-02-20T01:27:51.455Z,5.70
2019-02-20T01:30:19.926Z,5.60
2019-02-20T01:32:48.724Z,5.60
2019-02-20T01:35:17.175Z,5.50
2019-02-20T01:37:45.638Z,5.60
2019-02-20T01:40:14.474Z,5.60
2019-02-20T01:42:42.989Z,5.60
2019-02-20T01:45:11.525Z,5.60
2019-02-20T01:47:40.420Z,5.60
2019-02-20T01:50:09.112Z,5.60
2019-02-20T01:52:37.575Z,5.60
2019-02-20T01:55:07.849Z,5.50
2019-02-20T01:57:36.328Z,5.40
2019-02-20T02:00:10.934Z,5.40
2019-02-20T02:02:39.818Z,5.30
2019-02-20T02:05:14.809Z,5.20
2019-02-20T02:07:38.602Z,5.30
2019-02-20T02:10:08.292Z,5.40
2019-02-20T02:12:37.142Z,5.40
2019-02-20T02:15:07.421Z,5.40
2019-02-20T02:17:36.227Z,5.30
2019-02-20T02:20:07.297Z,5.30
2019-02-20T02:22:35.865Z,5.30
2019-02-20T02:25:05.706Z,5.40
2019-02-20T02:27:34.157Z,5.50
2019-02-20T02:30:04.056Z,5.50
2019-02-20T02:32:32.850Z,5.50
2019-02-20T02:35:01.304Z,5.50
2019-02-20T02:37:29.762Z,5.50
2019-02-20T02:39:58.591Z,5.50
2019-02-20T02:42:27.038Z,5.50
2019-02-20T02:44:55.826Z,5.50
2019-02-20T02:47:24.363Z,5.50
2019-02-20T02:49:53.139Z,5.30
2019-02-20T02:52:21.934Z,5.30
2019-02-20T02:54:50.824Z,5.30
2019-02-20T02:57:19.364Z,5.30
2019-02-20T02:59:47.800Z,5.40
2019-02-20T03:02:16.572Z,5.30
2019-02-20T03:04:45.038Z,5.30
2019-02-20T03:07:13.510Z,5.30
2019-02-20T03:09:42.323Z,5.30
2019-02-20T03:12:10.780Z,5.30
2019-02-20T03:14:39.578Z,5.20
2019-02-20T03:17:08.017Z,5.20
2019-02-20T03:19:36.848Z,5.20
2019-02-20T03:22:05.299Z,5.10
2019-02-20T03:24:33.735Z,5.10
2019-02-20T03:27:02.213Z,5.10
2019-02-20T03:29:30.740Z,5.10
2019-02-20T03:31:59.177Z,5.20
2019-02-20T03:34:27.943Z,5.20
2019-02-20T03:36:56.390Z,5.20
2019-02-20T03:39:25.205Z,5.10
2019-02-20T03:41:53.659Z,5.00
2019-02-20T03:44:22.102Z,5.00
2019-02-20T03:46:50.584Z,5.00
2019-02-20T03:49:19.017Z,5.00
2019-02-20T03:51:47.465Z,5.00
2019-02-20T03:54:15.927Z,5.00
2019-02-20T03:56:44.447Z,4.90
2019-02-20T03:59:12.888Z,5.00
2019-02-20T04:01:41.354Z,5.00
2019-02-20T04:04:09.802Z,4.90
2019-02-20T04:06:38.241Z,4.80
2019-02-20T04:09:06.790Z,4.90
2019-02-20T04:11:35.238Z,4.90
2019-02-20T04:14:03.752Z,5.00
2019-02-20T04:16:32.237Z,4.90
2019-02-20T04:19:00.750Z,4.80
2019-02-20T04:21:29.321Z,4.80
2019-02-20T04:24:02.239Z,4.90
2019-02-20T04:26:28.305Z,5.00
2019-02-20T04:28:56.871Z,5.10
2019-02-20T04:31:25.405Z,5.00
2019-02-20T04:33:53.930Z,5.00
2019-02-20T04:36:22.737Z,4.90
2019-02-20T04:38:54.432Z,4.80
2019-02-20T04:41:22.943Z,4.80
2019-02-20T04:43:51.407Z,4.80
2019-02-20T04:46:19.865Z,4.80
2019-02-20T04:48:48.729Z,4.80
2019-02-20T04:51:17.247Z,4.80
2019-02-20T04:53:45.698Z,4.90
2019-02-20T04:56:14.243Z,4.80
2019-02-20T04:58:43.001Z,4.80
2019-02-20T05:01:11.473Z,4.70
2019-02-20T05:03:39.924Z,4.70
2019-02-20T05:06:08.372Z,4.70
2019-02-20T05:08:36.851Z,4.70
2019-02-20T05:11:05.292Z,4.70
2019-02-20T05:13:33.753Z,4.60
2019-02-20T05:16:02.222Z,4.60
2019-02-20T05:18:31.010Z,4.60
2019-02-20T05:20:59.798Z,4.70
2019-02-20T05:23:28.269Z,4.80
2019-02-20T05:25:56.724Z,4.80
2019-02-20T05:28:25.550Z,4.80
2019-02-20T05:30:54.451Z,4.70
2019-02-20T05:33:22.934Z,4.70
2019-02-20T05:35:51.718Z,4.60
2019-02-20T05:38:20.264Z,4.60
2019-02-20T05:40:48.779Z,4.70
2019-02-20T05:43:17.315Z,4.70
2019-02-20T05:45:45.753Z,4.60
2019-02-20T05:48:14.190Z,4.60
2019-02-20T05:50:43.011Z,4.60
2019-02-20T18:28:27.212Z,9.30
2019-02-20T18:30:55.698Z,9.30
2019-02-20T18:33:24.171Z,9.20
2019-02-20T18:35:52.639Z,9.20
2019-02-20T18:38:21.423Z,9.20
2019-02-20T18:40:50.314Z,9.20
2019-02-20T18:43:18.844Z,9.20
2019-02-20T18:45:47.581Z,9.10
2019-02-20T18:48:16.121Z,9.00
2019-02-20T18:50:44.566Z,9.00
2019-02-20T18:53:13.032Z,9.00
2019-02-20T18:55:41.541Z,8.90
2019-02-20T18:58:09.997Z,8.90
2019-02-20T19:00:38.873Z,8.90
2019-02-20T19:03:07.429Z,8.80
2019-02-20T19:05:35.949Z,8.80
2019-02-20T19:08:24.091Z,8.80
2019-02-20T19:10:55.658Z,8.80
2019-02-20T19:13:57.382Z,8.80
2019-02-20T19:16:48.746Z,8.80
2019-02-20T19:19:32.040Z,8.70
2019-02-20T19:22:18.871Z,8.70
2019-02-20T19:25:19.384Z,8.60
2019-02-20T19:28:11.609Z,8.60
2019-02-20T19:31:14.714Z,8.60
2019-02-20T19:33:48.829Z,8.60
2019-02-20T19:36:26.925Z,8.60
2019-02-20T19:39:16.953Z,8.50
2019-02-20T19:42:18.750Z,8.40
2019-02-20T19:45:07.127Z,8.50
2019-02-20T19:47:44.361Z,8.40
2019-02-20T19:50:35.539Z,8.40
2019-02-20T19:53:13.022Z,8.40
2019-02-20T19:55:56.878Z,8.40
2019-02-20T19:58:31.350Z,8.40
2019-02-20T20:01:15.248Z,8.40
2019-02-20T20:04:05.004Z,8.30
2019-02-20T20:06:53.536Z,8.30
2019-02-20T20:09:46.343Z,8.30
2019-02-20T20:12:23.835Z,8.30
2019-02-20T20:15:10.063Z,8.20
2019-02-20T20:17:59.562Z,8.20
2019-02-20T20:20:43.328Z,8.20
2019-02-20T20:23:31.966Z,8.30
2019-02-20T20:26:16.088Z,8.20
2019-02-20T20:29:07.793Z,8.20
2019-02-20T20:31:44.818Z,8.10
2019-02-20T20:34:53.939Z,8.10
2019-02-20T20:37:33.319Z,8.00
2019-02-20T20:40:04.932Z,8.00
2019-02-20T20:43:03.622Z,8.00
2019-02-20T20:45:44.539Z,7.90
2019-02-20T20:48:19.109Z,7.90
2019-02-20T20:51:24.015Z,7.90
2019-02-20T20:54:07.425Z,7.90
2019-02-20T20:56:57.942Z,7.90
2019-02-20T20:59:38.014Z,7.80
2019-02-20T21:02:12.709Z,7.80
2019-02-20T21:04:59.293Z,7.80
2019-02-20T21:07:45.565Z,7.70
2019-02-20T21:10:19.884Z,7.70
2019-02-20T21:13:03.477Z,7.70
2019-02-20T21:15:57.754Z,7.60
2019-02-20T21:18:47.142Z,7.70
2019-02-20T21:21:43.319Z,7.70
2019-02-20T21:24:31.841Z,7.80
2019-02-20T21:27:18.883Z,7.80
2019-02-20T21:30:01.805Z,7.80
2019-02-20T21:32:42.050Z,7.70
2019-02-20T21:35:22.546Z,7.70
2019-02-20T21:38:27.651Z,7.70
2019-02-20T21:41:10.746Z,7.60
2019-02-20T21:44:00.557Z,7.50
2019-02-20T21:46:38.094Z,7.50
2019-02-20T21:49:12.731Z,7.50
2019-02-20T21:51:59.597Z,7.40
2019-02-20T21:54:43.567Z,7.40
2019-02-20T21:57:15.134Z,7.30
2019-02-20T22:00:18.330Z,7.40
2019-02-20T22:02:58.955Z,7.40
2019-02-20T22:05:53.440Z,7.30
2019-02-20T22:08:33.270Z,7.30
2019-02-20T22:11:21.301Z,7.30
2019-02-20T22:14:01.988Z,7.40
2019-02-20T22:16:41.693Z,7.30
2019-02-20T22:19:19.220Z,7.30
2019-02-20T22:22:08.776Z,7.30
2019-02-20T22:24:48.873Z,7.20
2019-02-20T22:27:35.985Z,7.30
2019-02-20T22:30:27.963Z,7.20
2019-02-20T22:33:05.054Z,7.20
2019-02-20T22:35:42.457Z,7.20
2019-02-20T22:38:19.993Z,7.20
2019-02-20T22:40:57.234Z,7.10
2019-02-20T22:43:45.389Z,7.10
2019-02-20T22:46:19.465Z,7.00
2019-02-20T22:49:15.586Z,7.00
2019-02-20T22:51:59.339Z,6.90
2019-02-20T22:54:51.982Z,6.90
2019-02-20T22:57:49.325Z,6.90
2019-02-20T23:00:41.855Z,6.80
2019-02-20T23:03:31.471Z,6.90
2019-02-20T23:06:27.293Z,6.90
2019-02-20T23:09:07.754Z,6.90
2019-02-20T23:11:39.658Z,6.90
2019-02-20T23:14:14.137Z,6.90
2019-02-20T23:16:42.670Z,6.90
2019-02-20T23:19:11.190Z,6.80
2019-02-20T23:21:39.741Z,6.80
2019-02-20T23:24:08.160Z,6.70
2019-02-20T23:26:37.003Z,6.80
2019-02-20T23:29:05.466Z,6.80
2019-02-20T23:31:34.270Z,6.80
2019-02-20T23:34:02.733Z,6.80
2019-02-20T23:36:31.471Z,6.80
2019-02-20T23:39:00.235Z,6.80
2019-02-20T23:41:29.135Z,6.80
2019-02-20T23:43:57.669Z,6.70
2019-02-20T23:46:26.113Z,6.70
2019-02-20T23:48:54.557Z,6.70
2019-02-20T23:51:23.338Z,6.70
2019-02-20T23:53:51.785Z,6.70
2019-02-20T23:56:20.614Z,6.70
2019-02-20T23:58:49.399Z,6.80
